Rockford, Michigan
Current Conditions -  °F | °C
As of 10:53 PM on Tuesday 21 Oct 2014 (Local Time) from KGRR Reporting Station
Clear Clear  
Wind Chill: 35°   Ceiling: Unl
Heat Index: 39°   Visibility: 10mi
Dew Point: 35°   Wind: 6mph
Humidity: 86%   Direction: 90°E
Pressure: 30.26"   Gusts: NA
Location:  43.13°N, 85.56°W
Report Text: KGRR 220253Z 09005KT 10SM CLR 04/02 A3026 RMK AO2 SLP252 T00390017 53020
Loading
Personal Weather Stations






























Interactive Weather Map
Tropical Storm Tracking
New forecast layout! Learn more

10-Day Weather Forecast

Advertisements
Track Severe Weather on mobile